createdAt,value
2019-04-21T00:00:52.269Z,15.08
2019-04-21T00:01:52.024Z,14.97
2019-04-21T00:02:59.605Z,14.80
2019-04-21T00:04:11.387Z,14.49
2019-04-21T00:05:24.982Z,14.25
2019-04-21T00:06:32.405Z,14.20
2019-04-21T00:07:32.076Z,14.16
2019-04-21T00:08:56.083Z,14.20
2019-04-21T00:09:45.611Z,14.20
2019-04-21T00:10:51.343Z,14.30
2019-04-21T00:11:59.869Z,14.39
2019-04-21T00:12:53.503Z,14.55
2019-04-21T00:13:56.378Z,14.55
2019-04-21T00:14:57.902Z,14.57
2019-04-21T00:15:57.857Z,14.47
2019-04-21T00:17:05.077Z,14.44
2019-04-21T00:18:10.949Z,14.32
2019-04-21T00:19:36.622Z,14.32
2019-04-21T00:20:44.198Z,14.31
2019-04-21T00:21:47.836Z,14.41
2019-04-21T00:22:58.815Z,14.50
2019-04-21T00:24:23.279Z,14.50
2019-04-21T00:25:32.046Z,14.49
2019-04-21T00:26:37.634Z,14.47
2019-04-21T00:27:41.322Z,14.40
2019-04-21T00:28:53.307Z,14.35
2019-04-21T00:29:51.766Z,14.35
2019-04-21T00:30:58.713Z,14.28
2019-04-21T00:31:57.966Z,14.28
2019-04-21T00:32:56.360Z,14.10
2019-04-21T00:33:53.048Z,14.09
2019-04-21T00:35:03.021Z,14.13
2019-04-21T00:36:10.225Z,14.15
2019-04-21T00:37:16.321Z,14.16
2019-04-21T00:38:32.625Z,14.26
2019-04-21T00:39:43.327Z,14.26
2019-04-21T00:40:46.395Z,14.10
2019-04-21T00:41:50.870Z,14.21
2019-04-21T00:42:50.348Z,14.02
2019-04-21T00:43:49.495Z,14.02
2019-04-21T00:45:00.823Z,13.86
2019-04-21T00:45:57.392Z,13.79
2019-04-21T00:47:05.413Z,13.81
2019-04-21T00:48:19.198Z,13.81
2019-04-21T00:49:19.535Z,13.86
2019-04-21T00:50:33.692Z,13.93
2019-04-21T00:51:42.024Z,13.93
2019-04-21T00:53:00.182Z,13.92
2019-04-21T00:54:13.329Z,13.66
2019-04-21T00:55:20.259Z,13.59
2019-04-21T00:56:15.625Z,13.56
2019-04-21T00:57:27.733Z,13.31
2019-04-21T00:58:30.171Z,12.83
2019-04-21T00:59:33.513Z,12.76
2019-04-21T01:00:35.025Z,12.87
2019-04-21T01:01:38.248Z,12.92
2019-04-21T01:02:53.322Z,12.83
2019-04-21T01:03:51.913Z,12.91
2019-04-21T01:05:00.130Z,13.06
2019-04-21T01:05:57.581Z,13.05
2019-04-21T01:07:05.548Z,12.98
2019-04-21T01:08:04.921Z,12.98
2019-04-21T01:09:10.844Z,13.14
2019-04-21T01:10:06.367Z,13.14
2019-04-21T01:11:18.862Z,13.11
2019-04-21T01:12:29.800Z,13.11
2019-04-21T01:13:33.327Z,13.05
2019-04-21T01:14:37.290Z,12.98
2019-04-21T01:15:47.427Z,12.58
2019-04-21T01:16:45.892Z,12.49
2019-04-21T01:17:46.258Z,12.56
2019-04-21T01:18:51.833Z,12.56
2019-04-21T01:19:50.701Z,12.68
2019-04-21T01:20:39.065Z,12.68
2019-04-21T01:21:42.167Z,12.16
2019-04-21T01:22:44.983Z,12.06
2019-04-21T01:23:48.624Z,12.06
2019-04-21T01:25:01.821Z,11.98
2019-04-21T01:26:13.113Z,11.98
2019-04-21T01:27:11.332Z,12.00
2019-04-21T01:28:21.472Z,12.00
2019-04-21T01:29:37.357Z,11.82
2019-04-21T01:30:34.635Z,11.89
2019-04-21T01:31:36.300Z,11.85
2019-04-21T01:32:48.122Z,11.85
2019-04-21T01:33:50.674Z,11.92
2019-04-21T01:34:58.296Z,11.97
2019-04-21T01:36:02.519Z,11.97
2019-04-21T01:36:58.693Z,12.06
2019-04-21T01:38:14.219Z,11.98
2019-04-21T01:39:22.452Z,12.01
2019-04-21T01:40:26.037Z,12.01
2019-04-21T01:41:28.155Z,12.01
2019-04-21T01:42:28.515Z,12.05
2019-04-21T01:43:27.748Z,12.11
2019-04-21T01:44:54.394Z,12.25
2019-04-21T01:45:40.051Z,12.14
2019-04-21T01:46:40.901Z,12.14
2019-04-21T01:47:46.319Z,12.03
2019-04-21T01:48:49.402Z,11.96
2019-04-21T01:49:52.369Z,11.96
2019-04-21T01:51:03.775Z,11.73
2019-04-21T01:52:18.068Z,11.77
2019-04-21T01:53:24.178Z,11.91
2019-04-21T01:54:43.224Z,12.04
2019-04-21T01:56:11.684Z,12.00
2019-04-21T01:57:52.777Z,11.78
2019-04-21T01:58:48.257Z,11.78
2019-04-21T01:59:55.272Z,11.54
2019-04-21T02:01:05.768Z,11.33
2019-04-21T02:02:19.405Z,11.50
2019-04-21T02:03:36.217Z,11.70
2019-04-21T02:04:34.718Z,11.70
2019-04-21T02:05:36.359Z,11.56
2019-04-21T02:06:36.239Z,11.56
2019-04-21T02:07:40.891Z,11.51
2019-04-21T02:08:41.833Z,11.52
2019-04-21T02:09:50.984Z,11.57
2019-04-21T02:10:56.018Z,11.62
2019-04-21T02:12:01.037Z,11.62
2019-04-21T02:13:03.213Z,11.69
2019-04-21T02:14:09.844Z,11.64
2019-04-21T02:15:36.116Z,11.64
2019-04-21T02:16:23.441Z,11.29
2019-04-21T02:17:29.224Z,11.32
2019-04-21T02:18:27.674Z,11.26
2019-04-21T02:19:31.312Z,11.36
2019-04-21T02:20:32.662Z,11.52
2019-04-21T02:21:41.034Z,11.44
2019-04-21T02:23:06.711Z,11.32
2019-04-21T02:24:01.778Z,11.23
2019-04-21T02:25:00.976Z,11.23
2019-04-21T02:26:08.137Z,11.04
2019-04-21T02:27:12.719Z,10.85
2019-04-21T02:28:22.444Z,10.74
2019-04-21T02:29:25.063Z,10.65
2019-04-21T02:30:40.055Z,10.61
2019-04-21T02:31:36.106Z,10.45
2019-04-21T02:32:44.266Z,10.62
2019-04-21T02:34:00.328Z,10.62
2019-04-21T02:36:00.566Z,11.00
2019-04-21T02:40:19.100Z,11.01
2019-04-21T02:41:12.881Z,10.95
2019-04-21T02:42:19.886Z,10.95
2019-04-21T02:43:50.121Z,10.92
2019-04-21T02:44:37.349Z,10.92
2019-04-21T02:46:50.373Z,10.34
2019-04-21T02:48:04.466Z,10.37
2019-04-21T02:48:55.501Z,10.35
2019-04-21T02:51:03.807Z,10.68
2019-04-21T02:52:14.293Z,10.84
2019-04-21T02:53:21.235Z,10.91
2019-04-21T02:55:25.583Z,10.84
2019-04-21T02:56:48.226Z,10.74
2019-04-21T02:57:39.682Z,10.71
2019-04-21T03:01:37.786Z,10.85
2019-04-21T03:02:54.723Z,10.86
2019-04-21T03:04:11.205Z,10.88
2019-04-21T03:05:42.441Z,10.88
2019-04-21T03:09:15.975Z,10.54
2019-04-21T03:11:17.401Z,10.41
2019-04-21T03:13:21.688Z,10.41
2019-04-21T03:15:29.318Z,10.27
2019-04-21T03:16:28.417Z,10.51
2019-04-21T03:17:44.063Z,10.56
2019-04-21T03:18:48.592Z,10.57
2019-04-21T03:19:55.527Z,10.40
2019-04-21T03:21:00.962Z,10.40
2019-04-21T03:21:57.328Z,10.25
2019-04-21T03:23:15.389Z,10.25
2019-04-21T03:24:12.114Z,10.24
2019-04-21T03:26:19.910Z,10.23
2019-04-21T03:27:35.619Z,10.23
2019-04-21T03:28:22.313Z,10.21
2019-04-21T03:29:39.523Z,10.26
2019-04-21T03:37:14.029Z,9.48
2019-04-21T03:39:13.739Z,9.39
2019-04-21T03:40:25.979Z,9.34
2019-04-21T03:41:18.858Z,9.34
2019-04-21T03:42:42.563Z,9.43
2019-04-21T03:43:26.808Z,9.37
2019-04-21T03:44:37.087Z,9.49
2019-04-21T03:47:46.448Z,9.71
2019-04-21T03:48:58.335Z,9.71
2019-04-21T03:50:08.558Z,10.00
2019-04-21T03:51:07.759Z,9.85
2019-04-21T03:52:11.983Z,9.85
2019-04-21T03:54:16.114Z,9.61
2019-04-21T03:57:51.745Z,9.48
2019-04-21T03:58:47.054Z,9.59
2019-04-21T03:59:50.452Z,9.55
2019-04-21T04:01:09.804Z,9.55
2019-04-21T04:02:35.023Z,9.32
2019-04-21T04:03:55.347Z,9.32
2019-04-21T04:04:52.716Z,9.05
2019-04-21T04:09:19.464Z,9.37
2019-04-21T04:10:11.779Z,9.32
2019-04-21T04:12:23.125Z,9.32
2019-04-21T04:13:37.290Z,9.37
2019-04-21T04:14:42.454Z,9.36
2019-04-21T04:16:49.456Z,9.40
2019-04-21T04:17:41.170Z,9.52
2019-04-21T04:18:52.871Z,9.59
2019-04-21T04:20:01.375Z,9.74
2019-04-21T04:21:10.181Z,9.81
2019-04-21T04:23:07.976Z,9.45
2019-04-21T04:24:34.268Z,9.45
2019-04-21T04:25:18.867Z,9.28
2019-04-21T04:28:50.163Z,9.37
2019-04-21T04:29:39.679Z,9.37
2019-04-21T04:30:45.430Z,9.30
2019-04-21T04:31:53.447Z,9.40
2019-04-21T04:33:00.581Z,9.28
2019-04-21T04:36:30.442Z,9.40
2019-04-21T04:39:48.486Z,9.45
2019-04-21T04:43:35.100Z,9.32
2019-04-21T04:44:59.722Z,9.13
2019-04-21T04:45:48.265Z,9.13
2019-04-21T04:46:55.794Z,9.04
2019-04-21T04:49:25.228Z,9.08
2019-04-21T04:50:33.158Z,9.08
2019-04-21T04:51:48.309Z,9.10
2019-04-21T04:55:46.084Z,8.84
2019-04-21T04:56:56.364Z,8.76
2019-04-21T05:01:23.078Z,8.93
2019-04-21T05:02:31.766Z,9.04
2019-04-21T05:03:41.896Z,9.04
2019-04-21T05:04:35.515Z,9.04
2019-04-21T05:05:55.725Z,9.04
2019-04-21T05:07:50.518Z,9.21
2019-04-21T05:09:04.304Z,9.24
2019-04-21T05:11:08.575Z,9.29
2019-04-21T05:13:21.306Z,9.24
2019-04-21T05:14:18.299Z,9.22
2019-04-21T05:15:19.513Z,9.21
2019-04-21T05:17:37.789Z,9.15
2019-04-21T05:18:43.842Z,9.19
2019-04-21T05:19:57.242Z,9.19
2019-04-21T05:20:53.272Z,9.50
2019-04-21T05:21:48.353Z,9.50
2019-04-21T05:22:53.080Z,9.50
2019-04-21T05:23:52.538Z,9.25
2019-04-21T05:24:55.317Z,9.39
2019-04-21T05:26:01.304Z,9.38
2019-04-21T05:27:08.614Z,9.40
2019-04-21T05:28:10.258Z,9.46
2019-04-21T05:29:15.842Z,9.44
2019-04-21T05:44:35.400Z,9.58
2019-04-21T05:45:33.463Z,9.53
2019-04-21T05:46:49.230Z,9.47
2019-04-21T05:49:15.396Z,9.31
2019-04-21T05:50:19.208Z,9.31
2019-04-21T05:51:25.850Z,9.36
2019-04-21T05:52:27.782Z,9.70
2019-04-21T05:54:03.551Z,9.83
2019-04-21T05:54:44.341Z,10.00
2019-04-21T05:56:51.630Z,10.04
2019-04-21T05:57:58.305Z,10.15
2019-04-21T05:58:58.128Z,10.01
2019-04-21T06:00:01.268Z,10.01
2019-04-21T06:02:28.951Z,10.26
2019-04-21T06:03:44.306Z,10.30
2019-04-21T06:04:56.617Z,10.30
2019-04-21T06:05:53.330Z,10.33
2019-04-21T06:06:47.684Z,10.33
2019-04-21T06:07:52.520Z,10.83
2019-04-21T06:08:58.413Z,10.83
2019-04-21T06:10:20.450Z,10.84
2019-04-21T06:11:13.128Z,10.65
2019-04-21T06:12:13.114Z,10.83
2019-04-21T06:13:28.177Z,10.83
2019-04-21T06:14:29.420Z,11.01
2019-04-21T06:15:37.118Z,10.98
2019-04-21T06:16:43.382Z,11.22
2019-04-21T06:17:47.253Z,11.54
2019-04-21T06:18:53.008Z,11.76
2019-04-21T06:19:59.141Z,11.95
2019-04-21T06:21:05.582Z,11.95
2019-04-21T06:22:10.490Z,12.09
2019-04-21T06:23:20.482Z,12.17
2019-04-21T06:24:20.530Z,12.20
2019-04-21T06:25:54.585Z,12.42
2019-04-21T06:26:52.084Z,12.66
2019-04-21T06:27:51.157Z,12.76
2019-04-21T06:28:47.235Z,12.95
2019-04-21T06:29:52.749Z,13.11
2019-04-21T06:31:00.073Z,13.33
2019-04-21T06:32:26.883Z,13.53
2019-04-21T06:32:59.012Z,13.73
2019-04-21T06:34:03.717Z,13.74
2019-04-21T06:35:58.808Z,13.85
2019-04-21T06:37:14.658Z,14.11
2019-04-21T06:38:10.443Z,14.21
2019-04-21T06:40:21.089Z,14.35
2019-04-21T06:41:26.460Z,14.35
2019-04-21T06:42:25.502Z,14.46
2019-04-21T06:43:33.313Z,14.56
2019-04-21T06:44:35.168Z,14.86
2019-04-21T06:45:44.769Z,14.93
2019-04-21T06:46:45.689Z,15.08
2019-04-21T06:47:53.983Z,15.27
2019-04-21T06:48:55.760Z,15.50
2019-04-21T06:49:53.818Z,15.88
2019-04-21T06:51:06.875Z,15.88
2019-04-21T06:52:17.867Z,15.93
2019-04-21T06:53:10.815Z,16.08
2019-04-21T06:54:16.139Z,16.15
2019-04-21T06:55:20.119Z,15.83
2019-04-21T06:56:34.765Z,15.83
2019-04-21T06:57:28.964Z,15.58
2019-04-21T06:58:31.995Z,15.83
2019-04-21T06:59:37.212Z,16.25
2019-04-21T07:00:42.447Z,16.54
2019-04-21T07:01:55.325Z,16.54
2019-04-21T07:03:01.481Z,16.49
2019-04-21T07:04:05.764Z,17.03
2019-04-21T07:05:07.557Z,17.24
2019-04-21T07:06:13.093Z,17.24
2019-04-21T07:07:18.764Z,17.50
2019-04-21T07:08:32.757Z,17.29
2019-04-21T07:09:25.448Z,17.33
2019-04-21T07:10:44.807Z,17.33
2019-04-21T07:11:33.143Z,17.23
2019-04-21T07:12:42.990Z,16.95
2019-04-21T07:18:27.618Z,17.90
2019-04-21T07:19:34.676Z,18.28
2019-04-21T07:20:36.271Z,18.61
2019-04-21T07:21:45.764Z,18.61
2019-04-21T07:22:50.902Z,18.30
2019-04-21T07:23:53.550Z,17.85
2019-04-21T07:24:58.922Z,18.04
2019-04-21T07:26:03.177Z,18.41
2019-04-21T07:27:08.831Z,18.40
2019-04-21T07:28:15.498Z,18.46
2019-04-21T07:29:25.797Z,19.04
2019-04-21T07:30:25.624Z,19.26
2019-04-21T07:31:33.142Z,19.36
2019-04-21T07:32:36.466Z,19.38
2019-04-21T07:33:53.799Z,19.27
2019-04-21T07:34:44.851Z,19.13
2019-04-21T07:35:46.086Z,19.37
2019-04-21T07:36:54.843Z,19.67
2019-04-21T07:38:01.296Z,19.86
2019-04-21T07:40:01.892Z,20.13
2019-04-21T07:41:02.151Z,19.66
2019-04-21T07:42:13.514Z,19.92
2019-04-21T07:43:10.773Z,19.78
2019-04-21T07:44:18.178Z,19.96
2019-04-21T07:45:22.713Z,19.96
2019-04-21T07:46:28.933Z,20.25
2019-04-21T07:47:50.703Z,20.41
2019-04-21T07:49:01.644Z,20.50
2019-04-21T07:50:14.933Z,20.50
2019-04-21T07:51:32.253Z,20.57
2019-04-21T07:53:05.218Z,20.51
2019-04-21T07:54:01.824Z,20.09
2019-04-21T07:55:22.067Z,20.09
2019-04-21T07:55:51.128Z,19.81
2019-04-21T07:57:11.601Z,20.14
2019-04-21T07:58:14.810Z,20.75
2019-04-21T07:59:31.537Z,21.17
2019-04-21T08:01:30.720Z,21.27
2019-04-21T08:02:38.621Z,21.79
2019-04-21T08:03:50.103Z,21.67
2019-04-21T08:05:09.579Z,21.37
2019-04-21T08:05:54.788Z,20.99
2019-04-21T08:07:15.032Z,21.16
2019-04-21T08:07:56.085Z,21.32
2019-04-21T08:09:07.382Z,21.24
2019-04-21T08:10:10.472Z,21.24
2019-04-21T08:11:09.600Z,21.98
2019-04-21T08:12:16.024Z,22.39
2019-04-21T08:13:28.868Z,22.74
2019-04-21T08:14:28.654Z,22.83
2019-04-21T08:15:33.989Z,22.92
2019-04-21T08:16:36.766Z,22.73
2019-04-21T08:17:43.349Z,22.05
2019-04-21T08:18:45.509Z,22.58
2019-04-21T08:19:48.766Z,23.25
2019-04-21T08:20:54.482Z,23.48
2019-04-21T08:22:09.567Z,23.35
2019-04-21T08:23:07.066Z,23.35
2019-04-21T08:24:08.826Z,23.12
2019-04-21T08:25:14.874Z,23.11
2019-04-21T08:26:22.947Z,23.23
2019-04-21T08:27:32.097Z,23.23
2019-04-21T08:28:35.569Z,22.70
2019-04-21T08:29:44.085Z,22.70
2019-04-21T08:30:36.501Z,22.42
2019-04-21T08:31:58.714Z,23.08
2019-04-21T08:33:10.663Z,23.08
2019-04-21T08:35:23.932Z,23.00
2019-04-21T08:36:17.810Z,23.34
2019-04-21T08:37:15.058Z,23.34
2019-04-21T08:38:21.896Z,23.37
2019-04-21T08:39:31.516Z,22.49
2019-04-21T08:40:36.823Z,22.49
2019-04-21T08:41:40.772Z,22.36
2019-04-21T08:42:49.088Z,22.97
2019-04-21T08:44:03.839Z,23.73
2019-04-21T08:44:54.378Z,24.22
2019-04-21T08:46:03.587Z,23.95
2019-04-21T08:47:07.487Z,23.49
2019-04-21T08:48:10.580Z,23.31
2019-04-21T08:49:15.629Z,23.43
2019-04-21T08:50:20.505Z,23.49
2019-04-21T08:51:33.103Z,23.64
2019-04-21T08:52:42.913Z,23.09
2019-04-21T08:53:42.891Z,23.15
2019-04-21T08:54:53.624Z,23.15
2019-04-21T08:56:13.116Z,22.50
2019-04-21T08:57:48.786Z,21.94
2019-04-21T08:59:28.878Z,21.94
2019-04-21T09:00:51.395Z,21.63
2019-04-21T09:01:57.227Z,21.63
2019-04-21T09:03:06.431Z,22.43
2019-04-21T09:04:16.613Z,23.27
2019-04-21T09:05:17.509Z,23.65
2019-04-21T09:06:31.709Z,23.65
2019-04-21T09:07:32.179Z,24.08
2019-04-21T09:08:31.672Z,24.50
2019-04-21T09:09:41.637Z,24.34
2019-04-21T09:10:48.530Z,23.92
2019-04-21T09:11:54.076Z,23.92
2019-04-21T09:12:51.785Z,23.17
2019-04-21T09:14:05.213Z,24.07
2019-04-21T09:15:09.919Z,22.87
2019-04-21T09:16:06.302Z,22.87
2019-04-21T09:17:06.573Z,21.72
2019-04-21T09:18:13.356Z,21.70
2019-04-21T09:19:33.964Z,22.27
2019-04-21T09:20:33.778Z,22.27
2019-04-21T09:21:39.420Z,23.51
2019-04-21T09:22:44.269Z,23.47
2019-04-21T09:25:25.344Z,23.34
2019-04-21T09:26:27.096Z,22.98
2019-04-21T09:27:29.463Z,22.98
2019-04-21T09:28:25.535Z,23.15
2019-04-21T09:29:26.446Z,22.96
2019-04-21T09:30:23.980Z,23.60
2019-04-21T09:31:35.452Z,24.34
2019-04-21T09:32:36.663Z,24.82
2019-04-21T09:33:45.407Z,24.82
2019-04-21T09:34:49.277Z,24.52
2019-04-21T09:36:01.030Z,23.90
2019-04-21T09:37:15.356Z,23.87
2019-04-21T09:38:16.198Z,23.78
2019-04-21T09:39:16.143Z,23.82
2019-04-21T09:40:20.474Z,23.82
2019-04-21T09:41:24.099Z,24.00
2019-04-21T09:42:34.552Z,24.02
2019-04-21T09:43:39.524Z,24.33
2019-04-21T09:44:38.601Z,24.03
2019-04-21T09:45:40.718Z,23.54
2019-04-21T09:46:50.567Z,23.74
2019-04-21T09:48:00.876Z,24.43
2019-04-21T09:49:03.780Z,24.89
2019-04-21T09:50:10.295Z,25.19
2019-04-21T09:51:13.483Z,25.14
2019-04-21T09:52:20.943Z,25.23
2019-04-21T09:53:29.429Z,25.23
2019-04-21T09:54:31.299Z,25.34
2019-04-21T09:55:43.971Z,25.73
2019-04-21T09:56:52.393Z,25.73
2019-04-21T09:57:53.373Z,24.73
2019-04-21T09:58:58.121Z,23.99
2019-04-21T10:00:06.724Z,23.98
2019-04-21T10:01:15.665Z,23.65
2019-04-21T10:02:18.197Z,23.65
2019-04-21T10:03:19.082Z,23.00
2019-04-21T10:04:21.558Z,23.16
2019-04-21T10:05:25.236Z,23.71
2019-04-21T10:06:28.479Z,23.71
2019-04-21T10:07:38.276Z,25.04
2019-04-21T10:08:40.289Z,25.36
2019-04-21T10:09:43.602Z,25.66
2019-04-21T10:10:46.899Z,25.66
2019-04-21T10:11:50.475Z,25.78
2019-04-21T10:12:56.421Z,25.83
2019-04-21T10:13:59.315Z,23.54
2019-04-21T10:15:02.303Z,23.71
2019-04-21T10:16:24.200Z,23.71
2019-04-21T10:17:34.769Z,24.43
2019-04-21T10:18:37.986Z,23.92
2019-04-21T10:19:41.876Z,23.41
2019-04-21T10:20:44.907Z,23.55
2019-04-21T10:21:52.067Z,23.57
2019-04-21T10:23:00.544Z,23.57
2019-04-21T10:24:06.279Z,23.19
2019-04-21T10:25:12.602Z,23.06
2019-04-21T10:26:16.499Z,23.06
2019-04-21T10:27:19.577Z,24.77
2019-04-21T10:28:23.311Z,25.61
2019-04-21T10:29:31.247Z,25.61
2019-04-21T10:42:46.361Z,23.33
2019-04-21T10:43:49.376Z,23.94
2019-04-21T10:44:54.876Z,23.94
2019-04-21T10:45:58.931Z,23.80
2019-04-21T10:47:02.624Z,23.01
2019-04-21T10:48:07.217Z,23.19
2019-04-21T10:49:19.476Z,23.19
2019-04-21T10:50:22.641Z,23.63
2019-04-21T10:51:25.603Z,23.48
2019-04-21T10:52:47.236Z,23.48
2019-04-21T10:53:53.928Z,24.20
2019-04-21T10:55:20.881Z,24.20
2019-04-21T10:56:13.604Z,24.24
2019-04-21T10:57:12.679Z,23.73
2019-04-21T10:58:22.676Z,24.42
2019-04-21T10:59:26.803Z,24.42
2019-04-21T11:00:32.310Z,24.24
2019-04-21T11:01:35.321Z,24.01
2019-04-21T11:02:52.837Z,23.41
2019-04-21T11:04:21.818Z,23.41
2019-04-21T11:05:20.798Z,23.47
2019-04-21T11:06:24.487Z,23.78
2019-04-21T11:07:58.941Z,23.78
2019-04-21T11:08:55.434Z,24.14
2019-04-21T11:09:56.058Z,24.39
2019-04-21T11:11:06.013Z,24.16
2019-04-21T11:12:13.546Z,24.14
2019-04-21T11:13:16.643Z,24.29
2019-04-21T11:14:21.018Z,24.29
2019-04-21T11:15:29.478Z,24.14
2019-04-21T11:16:37.211Z,24.15
2019-04-21T11:17:45.543Z,24.62
2019-04-21T11:18:48.235Z,24.56
2019-04-21T11:19:54.837Z,24.56
2019-04-21T11:20:58.813Z,25.11
2019-04-21T11:22:02.871Z,25.77
2019-04-21T11:23:06.209Z,24.97
2019-04-21T11:24:10.248Z,24.28
2019-04-21T11:25:13.527Z,23.74
2019-04-21T11:26:17.678Z,23.82
2019-04-21T11:27:20.870Z,23.82
2019-04-21T11:28:24.836Z,24.98
2019-04-21T11:29:28.590Z,24.98
2019-04-21T11:30:33.658Z,25.23
2019-04-21T11:31:38.965Z,25.80
2019-04-21T11:32:49.435Z,26.14
2019-04-21T11:33:57.417Z,26.14
2019-04-21T11:35:01.205Z,25.63
2019-04-21T11:36:07.159Z,25.63
2019-04-21T11:37:19.930Z,24.74
2019-04-21T11:38:30.495Z,24.34
2019-04-21T11:39:46.027Z,24.03
2019-04-21T11:40:43.421Z,24.03
2019-04-21T11:41:49.842Z,23.94
2019-04-21T11:42:57.645Z,23.94
2019-04-21T11:44:01.430Z,24.12
2019-04-21T11:45:06.184Z,24.01
2019-04-21T11:46:09.049Z,23.87
2019-04-21T11:47:20.533Z,23.87
2019-04-21T11:48:28.480Z,24.58
2019-04-21T11:49:32.549Z,24.43
2019-04-21T11:50:35.542Z,24.82
2019-04-21T11:51:44.983Z,25.25
2019-04-21T11:52:50.275Z,26.09
2019-04-21T11:53:56.879Z,26.09
2019-04-21T11:55:00.551Z,26.62
2019-04-21T11:56:04.853Z,24.68
2019-04-21T11:57:14.077Z,24.62
2019-04-21T11:58:12.229Z,24.32
2019-04-21T11:59:15.535Z,24.54
2019-04-21T12:00:21.790Z,24.67
2019-04-21T12:01:29.748Z,24.94
2019-04-21T12:02:33.268Z,25.07
2019-04-21T12:03:37.646Z,25.07
2019-04-21T12:04:41.258Z,25.82
2019-04-21T12:05:45.540Z,25.48
2019-04-21T12:06:55.595Z,25.31
2019-04-21T12:07:58.450Z,25.05
2019-04-21T12:09:04.583Z,25.51
2019-04-21T12:10:07.024Z,25.51
2019-04-21T12:11:09.909Z,26.62
2019-04-21T12:12:12.739Z,26.69
2019-04-21T12:13:24.437Z,25.64
2019-04-21T12:14:27.989Z,25.62
2019-04-21T12:15:31.470Z,25.62
2019-04-21T12:16:35.106Z,26.29
2019-04-21T12:17:41.798Z,26.24
2019-04-21T12:18:45.138Z,25.46
2019-04-21T12:19:48.561Z,24.82
2019-04-21T12:20:51.691Z,24.97
2019-04-21T12:22:07.130Z,25.36
2019-04-21T12:23:04.994Z,25.48
2019-04-21T12:24:19.434Z,25.48
2019-04-21T12:25:23.000Z,24.53
2019-04-21T12:26:26.393Z,24.53
2019-04-21T12:27:31.894Z,24.74
2019-04-21T12:28:38.109Z,24.42
2019-04-21T12:29:46.100Z,24.42
2019-04-21T12:30:55.795Z,24.38
2019-04-21T12:32:18.043Z,24.61
2019-04-21T12:33:40.244Z,24.61
2019-04-21T12:34:43.794Z,24.97
2019-04-21T12:35:48.065Z,24.98
2019-04-21T12:36:51.098Z,24.98
2019-04-21T12:37:58.500Z,25.15
2019-04-21T12:39:06.763Z,23.57
2019-04-21T12:40:12.591Z,24.47
2019-04-21T12:41:15.968Z,24.62
2019-04-21T12:42:24.842Z,24.62
2019-04-21T12:43:30.598Z,23.74
2019-04-21T12:44:33.601Z,23.89
2019-04-21T12:45:37.868Z,24.49
2019-04-21T12:46:41.171Z,25.31
2019-04-21T12:47:50.667Z,25.48
2019-04-21T12:48:56.230Z,25.48
2019-04-21T12:50:05.079Z,24.79
2019-04-21T12:51:03.933Z,24.09
2019-04-21T12:52:09.354Z,24.53
2019-04-21T12:53:27.683Z,24.69
2019-04-21T12:54:30.628Z,24.85
2019-04-21T12:55:42.470Z,24.45
2019-04-21T12:56:41.767Z,24.24
2019-04-21T12:57:45.467Z,24.24
2019-04-21T12:58:55.315Z,24.51
2019-04-21T13:00:02.788Z,24.65
2019-04-21T13:01:07.143Z,24.79
2019-04-21T13:02:15.830Z,24.92
2019-04-21T13:03:24.833Z,25.25
2019-04-21T13:04:33.333Z,25.25
2019-04-21T13:05:40.006Z,26.03
2019-04-21T13:06:43.547Z,26.43
2019-04-21T13:07:49.353Z,26.93
2019-04-21T13:09:01.375Z,27.63
2019-04-21T13:10:02.321Z,27.63
2019-04-21T13:11:06.821Z,27.70
2019-04-21T13:12:11.101Z,27.66
2019-04-21T13:13:20.067Z,27.66
2019-04-21T13:14:26.032Z,26.84
2019-04-21T13:15:27.512Z,27.09
2019-04-21T13:16:31.569Z,26.77
2019-04-21T13:17:37.264Z,26.77
2019-04-21T13:18:42.609Z,26.07
2019-04-21T13:19:47.352Z,26.26
2019-04-21T13:20:50.191Z,26.26
2019-04-21T13:21:54.017Z,25.55
2019-04-21T13:22:59.960Z,25.62
2019-04-21T13:24:05.620Z,25.68
2019-04-21T13:25:09.603Z,25.56
2019-04-21T13:26:15.090Z,25.92
2019-04-21T13:27:20.540Z,26.37
2019-04-21T13:28:24.832Z,26.55
2019-04-21T13:29:28.180Z,27.23
2019-04-21T13:30:32.643Z,26.17
2019-04-21T13:31:42.579Z,25.35
2019-04-21T13:32:45.203Z,25.48
2019-04-21T13:33:48.179Z,25.08
2019-04-21T13:34:52.765Z,24.68
2019-04-21T13:35:57.232Z,25.26
2019-04-21T13:37:03.516Z,25.42
2019-04-21T13:38:18.807Z,26.41
2019-04-21T13:41:05.376Z,25.82
2019-04-21T13:42:06.652Z,26.16
2019-04-21T13:43:05.801Z,26.16
2019-04-21T13:44:13.313Z,27.85
2019-04-21T13:45:16.437Z,27.80
2019-04-21T13:46:20.679Z,28.26
2019-04-21T13:47:24.831Z,28.80
2019-04-21T13:48:28.648Z,28.03
2019-04-21T13:49:32.257Z,28.03
2019-04-21T13:50:37.664Z,27.08
2019-04-21T13:51:41.654Z,27.15
2019-04-21T13:52:44.913Z,28.20
2019-04-21T13:53:49.667Z,28.75
2019-04-21T13:54:55.904Z,27.31
2019-04-21T13:56:00.556Z,27.31
2019-04-21T13:57:04.904Z,26.02
2019-04-21T13:58:08.536Z,26.02
2019-04-21T13:59:11.560Z,26.02
2019-04-21T14:00:15.155Z,26.42
2019-04-21T14:01:21.349Z,26.42
2019-04-21T14:02:34.490Z,27.68
2019-04-21T14:03:37.745Z,27.39
2019-04-21T14:04:41.208Z,27.39
2019-04-21T14:05:44.812Z,27.20
2019-04-21T14:06:50.168Z,28.06
2019-04-21T14:07:56.480Z,27.44
2019-04-21T14:09:03.141Z,26.33
2019-04-21T14:10:09.935Z,26.33
2019-04-21T14:11:11.388Z,26.53
2019-04-21T14:12:19.361Z,26.73
2019-04-21T14:13:24.712Z,26.73
2019-04-21T14:14:28.369Z,25.77
2019-04-21T14:15:32.429Z,25.77
2019-04-21T14:16:36.115Z,26.50
2019-04-21T14:17:39.261Z,27.14
2019-04-21T14:18:45.498Z,27.46
2019-04-21T14:19:48.987Z,27.14
2019-04-21T14:21:03.175Z,27.30
2019-04-21T14:22:14.147Z,26.74
2019-04-21T14:23:28.554Z,26.17
2019-04-21T14:24:25.183Z,26.17
2019-04-21T14:25:28.257Z,26.56
2019-04-21T14:26:32.147Z,25.87
2019-04-21T14:27:36.559Z,25.87
2019-04-21T14:28:41.381Z,26.18
2019-04-21T14:29:46.969Z,25.94
2019-04-21T14:30:54.369Z,25.94
2019-04-21T14:31:58.076Z,26.06
2019-04-21T14:33:02.242Z,26.30
2019-04-21T14:34:12.139Z,26.64
2019-04-21T14:35:14.797Z,26.64
2019-04-21T14:36:18.875Z,26.67
2019-04-21T14:37:22.682Z,26.21
2019-04-21T14:38:30.400Z,25.80
2019-04-21T14:39:48.445Z,26.94
2019-04-21T14:40:46.247Z,27.33
2019-04-21T14:41:52.138Z,27.33
2019-04-21T14:42:56.177Z,26.34
2019-04-21T14:44:01.095Z,26.11
2019-04-21T14:45:05.048Z,26.44
2019-04-21T14:46:31.190Z,26.44
2019-04-21T14:48:01.035Z,28.04
2019-04-21T14:49:37.363Z,28.13
2019-04-21T14:50:54.598Z,29.95
2019-04-21T14:52:21.184Z,32.09
2019-04-21T14:53:23.999Z,32.09
2019-04-21T14:54:48.948Z,31.14
2019-04-21T14:55:53.181Z,33.90
2019-04-21T14:56:57.664Z,33.90
2019-04-21T14:58:03.305Z,34.35
2019-04-21T14:59:07.254Z,34.83
2019-04-21T15:00:11.161Z,34.40
2019-04-21T15:01:15.661Z,33.32
2019-04-21T15:02:25.471Z,34.60
2019-04-21T15:03:29.810Z,34.60
2019-04-21T15:04:35.596Z,33.98
2019-04-21T15:05:39.782Z,33.44
2019-04-21T15:06:43.289Z,33.44
2019-04-21T15:07:46.297Z,34.94
2019-04-21T15:08:51.085Z,34.94
2019-04-21T15:10:04.419Z,34.53
2019-04-21T15:10:59.141Z,34.73
2019-04-21T15:12:03.120Z,35.19
2019-04-21T15:13:06.035Z,34.63
2019-04-21T15:14:08.990Z,34.63
2019-04-21T15:15:12.269Z,32.40
2019-04-21T15:16:15.535Z,32.40
2019-04-21T15:17:20.704Z,32.92
2019-04-21T15:18:23.250Z,33.66
2019-04-21T15:19:26.645Z,33.11
2019-04-21T15:20:30.894Z,32.24
2019-04-21T15:21:35.438Z,30.89
2019-04-21T15:22:38.796Z,30.38
2019-04-21T15:23:42.422Z,29.96
2019-04-21T15:24:45.507Z,30.64
2019-04-21T15:25:48.466Z,29.80
2019-04-21T15:26:52.990Z,29.80
2019-04-21T15:27:56.906Z,29.05
2019-04-21T15:29:00.483Z,29.05
2019-04-21T15:30:06.962Z,29.41
2019-04-21T15:31:15.193Z,30.45
2019-04-21T15:32:15.187Z,30.45
2019-04-21T15:33:39.186Z,30.96
2019-04-21T15:34:42.501Z,30.96
2019-04-21T15:35:51.289Z,30.85
2019-04-21T15:36:55.544Z,30.41
2019-04-21T15:37:59.918Z,30.07
2019-04-21T15:39:05.629Z,30.32
2019-04-21T15:40:18.151Z,30.07
2019-04-21T15:41:14.468Z,29.85
2019-04-21T15:42:18.662Z,29.85
2019-04-21T15:43:26.506Z,30.07
2019-04-21T15:44:27.669Z,31.64
2019-04-21T15:45:32.629Z,29.27
2019-04-21T15:46:35.343Z,30.34
2019-04-21T15:47:38.319Z,30.36
2019-04-21T15:48:44.761Z,32.19
2019-04-21T15:50:03.610Z,32.09
2019-04-21T15:51:03.605Z,29.53
2019-04-21T15:52:07.546Z,29.60
2019-04-21T15:53:14.099Z,29.60
2019-04-21T15:54:20.526Z,29.28